• Join FlightAware (Why Join?)
  • Login
  • US Flag 
04:36PM EDT


 

Airport Tracker/Info


-or-


 

Live Flight TrackerFlight Track Log ✈ SEJ112 ✈ 19-Feb-2014 ✈ VOCI / COK - VABB / BOM

Flight Track Log - Related Links

Times and Time Zones

All times are in EST time to prevent confusion due to time zone crossing. See the SEJ112 flight status page for this flight to view local times or setup timezone preferences in your user account.

Time Position Orientation Groundspeed Altitude Reporting Facility
EST Latitude Longitude Course Direction KTS MPH feet Rate Location/Type
01:03AM 10.5892 76.2354 339° North  Level Estimated
01:04AM 10.6621 76.2076 339° North  Level Estimated
01:05AM 10.7349 76.1798 339° North  Level Estimated
01:06AM 10.8078 76.1520 339° North  Level Estimated
01:07AM 10.8806 76.1242 339° North  Level Estimated
01:08AM 10.9535 76.0964 339° North  Level Estimated
01:09AM 11.0263 76.0685 339° North  Level Estimated
01:10AM 11.0992 76.0406 339° North  Level Estimated
01:11AM 11.1720 76.0127 339° North  Level Estimated
01:12AM 11.2449 75.9848 339° North  Level Estimated
01:13AM 11.3177 75.9569 339° North  Level Estimated
01:14AM 11.3905 75.9290 339° North  Level Estimated
01:15AM 11.4634 75.9011 339° North  Level Estimated
01:16AM 11.5362 75.8731 339° North  Level Estimated
01:17AM 11.6090 75.8451 339° North  Level Estimated
01:17AM 12.1296 75.3939 339° North 457 526 34,000  Level FlightAware ADS-B (VOYK)
01:18AM 11.6819 75.8171 339° North  Level Estimated
01:18AM 12.1886 75.3643 334° Northwest 457 526 34,000  Level FlightAware ADS-B (VOYK)
01:21AM 12.5117 75.2020 341° North 461 531 34,000  Level FlightAware ADS-B (VOYK)
01:21AM 12.5683 75.1734 334° Northwest 461 531 34,000  Level FlightAware ADS-B (VOYK)
01:21AM 12.5721 75.1715 334° Northwest 461 531 34,000  Level FlightAware ADS-B (VOYK)
01:24AM 12.7258 75.1188 342° North  Level Estimated
01:25AM 12.7996 75.0935 342° North  Level Estimated
01:26AM 12.8734 75.0682 342° North  Level Estimated
01:27AM 12.9472 75.0428 341° North  Level Estimated
01:28AM 13.0210 75.0175 341° North  Level Estimated
01:29AM 13.0948 74.9921 341° North  Level Estimated
01:30AM 13.1685 74.9667 341° North  Level Estimated
01:31AM 13.2423 74.9413 341° North  Level Estimated
01:32AM 13.3161 74.9159 341° North  Level Estimated
01:33AM 13.3899 74.8905 341° North  Level Estimated
01:34AM 13.4636 74.8651 341° North  Level Estimated
01:35AM 13.5374 74.8396 341° North  Level Estimated
01:36AM 13.6112 74.8141 341° North  Level Estimated
01:37AM 13.6849 74.7886 341° North  Level Estimated
01:38AM 13.7587 74.7631 341° North  Level Estimated
01:39AM 13.8325 74.7376 341° North  Level Estimated
01:40AM 13.9062 74.7121 341° North  Level Estimated
01:41AM 13.9800 74.6865 341° North  Level Estimated
01:42AM 14.0537 74.6609 341° North  Level Estimated
01:43AM 14.1275 74.6353 341° North  Level Estimated
01:44AM 14.2012 74.6097 341° North  Level Estimated
01:45AM 14.2750 74.5841 341° North  Level Estimated
01:46AM 14.3487 74.5585 341° North  Level Estimated
01:47AM 14.4225 74.5328 341° North  Level Estimated
01:48AM 14.4962 74.5071 341° North  Level Estimated
01:49AM 14.5699 74.4815 341° North  Level Estimated
01:50AM 14.6436 74.4557 341° North  Level Estimated
01:51AM 14.7174 74.4300 341° North  Level Estimated
01:52AM 14.7911 74.4043 341° North  Level Estimated
01:53AM 14.8648 74.3785 341° North  Level Estimated
01:54AM 14.9385 74.3527 341° North  Level Estimated
01:55AM 15.0122 74.3270 341° North  Level Estimated
01:56AM 15.0859 74.3011 341° North  Level Estimated
01:57AM 15.1597 74.2753 341° North  Level Estimated
01:58AM 15.2334 74.2495 341° North  Level Estimated
01:59AM 15.3071 74.2236 341° North  Level Estimated
02:00AM 15.3808 74.1977 341° North  Level Estimated
02:01AM 15.4545 74.1718 341° North  Level Estimated
02:02AM 15.5282 74.1459 341° North  Level Estimated
02:03AM 15.6018 74.1199 341° North  Level Estimated
02:04AM 15.6755 74.0940 341° North  Level Estimated
02:05AM 15.7492 74.0680 341° North  Level Estimated
02:06AM 15.8229 74.0420 341° North  Level Estimated
02:07AM 15.8966 74.0160 341° North  Level Estimated
02:08AM 15.9703 73.9900 341° North  Level Estimated
02:09AM 16.0439 73.9639 341° North  Level Estimated
02:10AM 16.1176 73.9378 341° North  Level Estimated
02:11AM 16.1913 73.9118 341° North  Level Estimated
02:12AM 16.2649 73.8856 341° North  Level Estimated
02:13AM 16.3386 73.8595 341° North  Level Estimated
02:14AM 16.4123 73.8334 341° North  Level Estimated
02:15AM 16.4859 73.8072 341° North  Level Estimated
02:16AM 16.5596 73.7810 341° North  Level Estimated
02:17AM 16.6332 73.7548 341° North  Level Estimated
02:18AM 16.7069 73.7286 341° North  Level Estimated
02:19AM 16.7805 73.7023 341° North  Level Estimated
02:20AM 16.8541 73.6760 341° North  Level Estimated
02:21AM 16.9278 73.6497 341° North  Level Estimated
02:22AM 17.0014 73.6234 341° North  Level Estimated
02:23AM 17.0750 73.5971 341° North  Level Estimated
02:24AM 17.1486 73.5707 341° North  Level Estimated
02:25AM 17.2223 73.5444 341° North  Level Estimated
02:26AM 17.2959 73.5180 341° North  Level Estimated
02:27AM 17.3695 73.4915 341° North  Level Estimated
02:28AM 17.4431 73.4651 341° North  Level Estimated
02:29AM 17.5167 73.4387 341° North  Level Estimated
02:30AM 17.5903 73.4122 341° North  Level Estimated
02:31AM 17.6639 73.3857 341° North  Level Estimated
02:32AM 17.7375 73.3591 341° North  Level Estimated
02:33AM 17.8111 73.3326 341° North  Level Estimated
02:34AM 17.8847 73.3060 341° North  Level Estimated
02:35AM 17.9583 73.2794 341° North  Level Estimated
02:36AM 18.0319 73.2528 341° North  Level Estimated
02:37AM 18.1054 73.2262 341° North  Level Estimated
02:38AM 18.1790 73.1995 341° North  Level Estimated
02:39AM 18.2526 73.1728 341° North  Level Estimated
02:40AM 18.3261 73.1461 341° North  Level Estimated
02:41AM 18.3997 73.1194 341° North  Level Estimated
02:42AM 18.4733 73.0927 341° North  Level Estimated
02:43AM 18.5468 73.0659 341° North  Level Estimated
02:44AM 18.6204 73.0391 341° North  Level Estimated
02:45AM 18.6939 73.0123 341° North  Level Estimated
02:46AM 18.7675 72.9854 341° North  Level Estimated
02:47AM 18.8410 72.9586 341° North  Level Estimated
02:48AM 18.9145 72.9317 341° North  Level Estimated
02:49AM 18.9881 72.9048 341° North  Level Estimated
02:50AM 19.0616 72.8779 341° North  Level Estimated
02:51AM 19.0887 72.8679 341° North  Level Estimated
02:52AM 19.0887 72.8679 193° South  Level Estimated
02:53AM 19.0887 72.8679 193° South  Level Estimated
02:54AM 19.0887 72.8679 193° South  Level Estimated
02:55AM 19.0887 72.8679 193° South  Level Estimated
02:56AM 19.0887 72.8679 193° South  Level Estimated
02:57AM 19.0887 72.8679 193° South  Level Estimated
02:58AM 19.0887 72.8679 193° South  Level Estimated
02:59AM 19.0887 72.8679 193° South  Level Estimated
03:00AM 19.0887 72.8679 193° South  Level Estimated
03:01AM 19.0887 72.8679 193° South  Level Estimated
03:02AM 19.0887 72.8679 193° South  Level Estimated
03:03AM 19.0887 72.8679 193° South  Level Estimated
03:04AM 19.0887 72.8679 193° South  Level Estimated
03:05AM 19.0887 72.8679 193° South  Level Estimated
03:06AM 19.0887 72.8679 193° South  Level Estimated
03:07AM 19.0887 72.8679 193° South  Level Estimated
03:08AM 19.0887 72.8679 193° South  Level Estimated
03:09AM 19.0887 72.8679 193° South  Level Estimated
03:10AM 19.0887 72.8679 193° South  Level Estimated
03:11AM 19.0887 72.8679 193° South  Level Estimated
03:12AM 19.0887 72.8679 193° South  Level Estimated
03:13AM 19.0887 72.8679 193° South  Level Estimated
03:14AM 19.0887 72.8679 193° South  Level Estimated
03:15AM 19.0887 72.8679 193° South  Level Estimated
03:16AM 19.0887 72.8679 193° South  Level Estimated